Time;durP1;ratioP1;P1;durP2;ratioP2;P2;SDS_P1;SDS_P2;PMS_P1;PMS_P2;Temp;Humidity;BMP_temperature;BMP_pressure;BME280_temperature;BME280_humidity;BME280_pressure;Samples;Min_cycle;Max_cycle;Signal;HPM_P1;HPM_P2
2021/10/12 00:00:10;;;;;;;5.67;2.07;;;9.20;99.90;;;;;;5108054;28;20261;-71
2021/10/12 00:02:37;;;;;;;5.63;1.73;;;9.10;99.90;;;;;;5108681;28;20279;-71
2021/10/12 00:05:05;;;;;;;9.30;1.77;;;9.20;99.90;;;;;;5108372;28;20662;-71
2021/10/12 00:07:32;;;;;;;5.13;1.90;;;9.20;99.90;;;;;;5108737;28;20255;-71
2021/10/12 00:09:59;;;;;;;4.47;1.60;;;9.10;99.90;;;;;;5108657;28;20231;-71
2021/10/12 00:12:26;;;;;;;4.07;1.80;;;9.20;99.90;;;;;;5110788;28;20203;-71
2021/10/12 00:14:54;;;;;;;4.07;1.67;;;9.20;99.90;;;;;;5112438;28;20224;-71
2021/10/12 00:17:20;;;;;;;7.27;1.80;;;9.20;99.90;;;;;;5112112;28;20222;-71
2021/10/12 00:19:47;;;;;;;5.33;1.50;;;9.20;99.90;;;;;;5111712;28;20206;-71
2021/10/12 00:22:13;;;;;;;3.27;1.50;;;9.20;99.90;;;;;;5111849;28;20247;-71
2021/10/12 00:24:40;;;;;;;3.43;1.80;;;9.20;99.90;;;;;;5111496;28;20268;-71
2021/10/12 00:27:07;;;;;;;6.30;1.60;;;9.20;99.90;;;;;;5111925;28;20252;-71
2021/10/12 00:29:33;;;;;;;5.97;1.60;;;9.20;99.90;;;;;;5111730;28;20251;-71
2021/10/12 00:32:01;;;;;;;7.00;2.13;;;9.10;99.90;;;;;;5111701;28;20229;-71
2021/10/12 00:34:28;;;;;;;4.83;1.83;;;9.10;99.90;;;;;;5111487;28;20207;-71
2021/10/12 00:36:55;;;;;;;6.47;1.67;;;9.10;99.90;;;;;;5111610;28;20225;-71
2021/10/12 00:39:21;;;;;;;5.77;1.60;;;9.10;99.90;;;;;;5111058;28;20226;-70
2021/10/12 00:41:48;;;;;;;5.60;1.60;;;9.20;99.90;;;;;;5111319;28;20234;-70
2021/10/12 00:44:15;;;;;;;3.17;1.70;;;9.10;99.90;;;;;;5111192;27;20214;-71
2021/10/12 00:46:42;;;;;;;5.87;1.50;;;9.20;99.90;;;;;;5111260;28;20206;-71
2021/10/12 00:49:10;;;;;;;5.47;1.83;;;9.10;99.90;;;;;;5111274;27;20210;-71
2021/10/12 00:51:37;;;;;;;5.97;1.70;;;9.10;99.90;;;;;;5111374;28;20330;-71
2021/10/12 00:54:03;;;;;;;4.20;2.20;;;9.10;99.90;;;;;;5111626;28;20206;-71
2021/10/12 00:56:31;;;;;;;4.17;1.90;;;9.10;99.90;;;;;;5111545;28;20206;-71
2021/10/12 00:58:58;;;;;;;2.43;1.20;;;9.10;99.90;;;;;;5111251;28;20812;-71
2021/10/12 01:01:25;;;;;;;4.60;1.10;;;9.00;99.90;;;;;;5110718;28;20242;-71
2021/10/12 01:03:51;;;;;;;3.13;1.33;;;9.00;99.90;;;;;;5111400;28;20241;-71
2021/10/12 01:06:19;;;;;;;5.07;1.73;;;9.00;99.90;;;;;;5110987;28;20275;-71
2021/10/12 01:08:46;;;;;;;6.53;1.63;;;8.90;99.90;;;;;;5109787;28;20290;-71
2021/10/12 01:11:13;;;;;;;3.00;1.20;;;8.90;99.90;;;;;;5110923;28;20275;-71
2021/10/12 01:13:40;;;;;;;3.23;1.70;;;9.10;99.90;;;;;;5109573;28;20238;-71
2021/10/12 01:16:07;;;;;;;5.57;1.93;;;9.00;99.90;;;;;;5090714;28;20207;-71
2021/10/12 01:18:34;;;;;;;6.50;2.07;;;9.10;99.90;;;;;;5090446;28;20819;-70
2021/10/12 01:21:02;;;;;;;6.63;1.77;;;9.20;99.90;;;;;;5090383;28;20728;-71
2021/10/12 01:23:28;;;;;;;6.30;1.97;;;9.00;99.90;;;;;;5089143;28;20242;-71
2021/10/12 01:25:55;;;;;;;5.03;1.53;;;9.10;99.90;;;;;;5090605;28;20245;-72
2021/10/12 01:28:21;;;;;;;6.00;1.70;;;9.00;99.90;;;;;;5090407;28;20626;-72
2021/10/12 01:30:48;;;;;;;5.53;1.50;;;9.00;99.90;;;;;;5090508;28;20231;-71
2021/10/12 01:33:15;;;;;;;4.87;1.60;;;9.10;99.90;;;;;;5090127;28;20223;-72
2021/10/12 01:35:42;;;;;;;5.87;2.90;;;8.90;99.90;;;;;;5090174;28;20235;-72
2021/10/12 01:38:09;;;;;;;10.70;4.77;;;8.80;99.90;;;;;;5089912;28;20674;-72
2021/10/12 01:40:36;;;;;;;8.03;4.93;;;8.80;99.90;;;;;;5090089;28;20246;-72
2021/10/12 01:43:03;;;;;;;4.07;1.87;;;8.80;99.90;;;;;;5090238;28;20620;-71
2021/10/12 01:45:30;;;;;;;2.10;1.47;;;8.70;99.90;;;;;;5089876;28;20676;-71
2021/10/12 01:47:56;;;;;;;3.13;1.43;;;8.70;99.90;;;;;;5090226;28;20256;-71
2021/10/12 01:50:23;;;;;;;4.23;1.80;;;8.70;99.90;;;;;;5089854;28;20202;-71
2021/10/12 01:52:50;;;;;;;7.63;1.80;;;8.70;99.90;;;;;;5090430;28;20207;-71
2021/10/12 01:55:20;;;;;;;3.10;1.60;;;8.60;99.90;;;;;;5090070;28;20207;-71
2021/10/12 01:57:47;;;;;;;5.23;2.17;;;8.50;99.90;;;;;;5089932;28;20287;-71
2021/10/12 02:00:14;;;;;;;4.37;1.57;;;8.50;99.90;;;;;;5089336;28;20276;-71
2021/10/12 02:02:41;;;;;;;7.80;1.90;;;8.60;99.90;;;;;;5089754;28;20688;-71
2021/10/12 02:05:08;;;;;;;4.77;1.60;;;8.60;99.90;;;;;;5089867;28;20248;-71
2021/10/12 02:07:35;;;;;;;6.00;1.77;;;8.60;99.90;;;;;;5089814;28;20203;-71
2021/10/12 02:10:01;;;;;;;4.80;1.70;;;8.60;99.90;;;;;;5089818;28;20206;-71
2021/10/12 02:12:30;;;;;;;7.47;1.80;;;8.50;99.90;;;;;;5089497;28;20238;-71
2021/10/12 02:14:57;;;;;;;7.40;1.67;;;8.50;99.90;;;;;;5089472;28;20210;-71
2021/10/12 02:17:23;;;;;;;3.43;1.93;;;8.50;99.90;;;;;;5089462;28;20383;-71
2021/10/12 02:19:50;;;;;;;5.50;2.10;;;8.50;99.90;;;;;;5089309;28;20657;-71
2021/10/12 02:22:17;;;;;;;6.80;1.93;;;8.50;99.90;;;;;;5089478;28;20298;-71
2021/10/12 02:24:43;;;;;;;5.27;1.87;;;8.50;99.90;;;;;;5089332;28;20233;-71
2021/10/12 02:27:10;;;;;;;7.40;1.80;;;8.40;99.90;;;;;;5089347;28;20713;-71
2021/10/12 02:29:38;;;;;;;5.43;1.90;;;8.50;99.90;;;;;;5089658;28;20260;-71
2021/10/12 02:32:05;;;;;;;5.17;1.87;;;8.50;99.90;;;;;;5089050;28;20861;-72
2021/10/12 02:34:31;;;;;;;5.47;1.77;;;8.50;99.90;;;;;;5088574;28;20238;-72
2021/10/12 02:36:58;;;;;;;5.37;1.90;;;8.50;99.90;;;;;;5089402;28;20283;-71
2021/10/12 02:39:25;;;;;;;5.67;1.80;;;8.50;99.90;;;;;;5088971;28;20222;-71
2021/10/12 02:41:51;;;;;;;5.97;1.70;;;8.50;99.90;;;;;;5089041;28;20265;-71
2021/10/12 02:44:18;;;;;;;4.40;1.47;;;8.50;99.90;;;;;;5088693;28;20230;-71
2021/10/12 02:46:46;;;;;;;5.50;1.83;;;8.40;99.90;;;;;;5088795;28;20206;-71
2021/10/12 02:49:13;;;;;;;6.57;2.00;;;8.50;99.90;;;;;;5088570;28;20210;-72
2021/10/12 02:51:39;;;;;;;2.63;1.63;;;8.40;99.90;;;;;;5089006;28;20231;-71
2021/10/12 02:54:06;;;;;;;5.93;2.07;;;8.30;99.90;;;;;;5088960;28;20202;-72
2021/10/12 02:56:32;;;;;;;4.50;1.77;;;8.20;99.90;;;;;;5088714;28;20209;-71
2021/10/12 02:58:59;;;;;;;6.13;1.87;;;8.20;99.90;;;;;;5111356;27;20233;-71
2021/10/12 03:01:26;;;;;;;7.77;2.67;;;8.30;99.90;;;;;;5087418;28;20247;-72
2021/10/12 03:03:54;;;;;;;3.20;1.80;;;8.20;99.90;;;;;;5088409;28;20267;-72
2021/10/12 03:06:21;;;;;;;6.13;2.33;;;8.10;99.90;;;;;;5088280;28;20607;-72
2021/10/12 03:08:48;;;;;;;4.10;2.07;;;8.20;99.90;;;;;;5094588;28;20283;-72
2021/10/12 03:11:15;;;;;;;3.87;1.93;;;8.20;99.90;;;;;;5104606;28;20279;-72
2021/10/12 03:13:42;;;;;;;7.83;2.00;;;8.20;99.90;;;;;;5105439;28;20225;-72
2021/10/12 03:16:08;;;;;;;5.60;1.97;;;8.20;99.90;;;;;;5105462;28;20359;-72
2021/10/12 03:18:35;;;;;;;7.60;1.90;;;8.20;99.90;;;;;;5105246;28;20206;-72
2021/10/12 03:21:03;;;;;;;3.47;1.97;;;8.30;99.90;;;;;;5104722;28;20202;-69
2021/10/12 03:23:30;;;;;;;4.70;1.97;;;8.30;99.90;;;;;;5104671;28;20202;-69
2021/10/12 03:25:57;;;;;;;4.67;2.57;;;8.40;99.90;;;;;;5103391;28;20695;-70
2021/10/12 03:28:24;;;;;;;5.90;2.33;;;8.40;99.90;;;;;;5106586;28;20252;-72
2021/10/12 03:30:51;;;;;;;8.17;2.30;;;8.40;99.90;;;;;;5117259;27;20241;-71
2021/10/12 03:33:19;;;;;;;4.33;1.90;;;8.40;99.90;;;;;;5104675;28;20247;-71
2021/10/12 03:35:50;;;;;;;3.27;1.50;;;8.30;99.90;;;;;;5104543;28;20687;-71
2021/10/12 03:38:18;;;;;;;4.37;1.87;;;8.30;99.90;;;;;;5116256;28;20237;-72
2021/10/12 03:40:45;;;;;;;4.77;1.97;;;8.30;99.90;;;;;;5125524;28;20636;-71
2021/10/12 03:43:11;;;;;;;4.43;2.07;;;8.30;99.90;;;;;;5125149;27;20248;-72
2021/10/12 03:45:38;;;;;;;3.17;1.93;;;8.20;99.90;;;;;;5125422;27;20254;-71
2021/10/12 03:48:05;;;;;;;4.43;2.17;;;8.20;99.90;;;;;;5129366;27;20605;-72
2021/10/12 03:50:32;;;;;;;4.30;2.17;;;8.20;99.90;;;;;;5129104;27;20724;-72
2021/10/12 03:52:58;;;;;;;2.83;1.70;;;8.10;99.90;;;;;;5129506;27;20723;-71
2021/10/12 03:55:26;;;;;;;7.20;2.70;;;8.20;99.90;;;;;;5129404;27;20205;-71
2021/10/12 03:57:53;;;;;;;5.57;2.30;;;8.20;99.90;;;;;;5125261;27;20201;-71
2021/10/12 04:00:20;;;;;;;7.43;2.80;;;8.20;99.90;;;;;;5110787;28;20267;-71
2021/10/12 04:02:46;;;;;;;5.23;2.30;;;8.20;99.90;;;;;;5097922;28;20252;-71
2021/10/12 04:05:13;;;;;;;6.70;2.57;;;8.30;99.90;;;;;;5105603;28;20234;-71
2021/10/12 04:07:40;;;;;;;7.90;2.73;;;8.30;99.90;;;;;;5099574;28;20202;-71
2021/10/12 04:10:08;;;;;;;5.83;2.80;;;8.30;99.90;;;;;;5103082;28;20640;-71
2021/10/12 04:12:36;;;;;;;3.57;2.97;;;8.30;99.90;;;;;;5099228;28;20230;-70
2021/10/12 04:15:03;;;;;;;6.10;2.87;;;8.30;99.90;;;;;;5102201;28;20200;-71
2021/10/12 04:17:29;;;;;;;7.30;4.40;;;8.30;99.90;;;;;;5103339;28;20299;-70
2021/10/12 04:19:56;;;;;;;8.20;3.03;;;8.40;99.90;;;;;;5102547;28;20225;-71
2021/10/12 04:22:22;;;;;;;6.23;2.93;;;8.40;99.90;;;;;;5099077;28;20692;-71
2021/10/12 04:24:49;;;;;;;10.50;4.00;;;8.40;99.90;;;;;;5100251;28;20222;-71
2021/10/12 04:27:16;;;;;;;8.57;4.30;;;8.50;99.90;;;;;;5101365;28;20202;-71
2021/10/12 04:29:44;;;;;;;8.83;3.97;;;8.50;99.90;;;;;;5101628;28;20194;-70
2021/10/12 04:32:11;;;;;;;7.90;3.50;;;8.50;99.90;;;;;;5101610;28;20218;-70
2021/10/12 04:34:38;;;;;;;7.23;3.70;;;8.40;99.90;;;;;;5100944;28;20766;-71
2021/10/12 04:37:04;;;;;;;7.47;4.23;;;8.50;99.90;;;;;;5099792;28;20245;-70
2021/10/12 04:39:31;;;;;;;6.73;3.70;;;8.50;99.90;;;;;;5099968;28;20241;-71
2021/10/12 04:42:01;;;;;;;9.10;4.17;;;8.50;99.90;;;;;;5100395;28;20219;-71
2021/10/12 04:44:29;;;;;;;7.80;3.57;;;8.50;99.90;;;;;;5099722;28;20207;-70
2021/10/12 04:46:57;;;;;;;8.00;3.83;;;8.50;99.90;;;;;;5099154;28;20202;-71
2021/10/12 04:49:23;;;;;;;8.93;3.33;;;8.60;99.90;;;;;;5101086;28;20247;-71
2021/10/12 04:51:50;;;;;;;5.13;3.40;;;8.50;99.90;;;;;;5104837;27;20568;-71
2021/10/12 04:54:16;;;;;;;5.43;2.90;;;8.60;99.90;;;;;;5107850;27;20734;-70
2021/10/12 04:56:43;;;;;;;6.07;3.00;;;8.70;99.90;;;;;;5101360;28;20295;-70
2021/10/12 04:59:10;;;;;;;6.13;2.77;;;8.70;99.90;;;;;;5110103;27;20290;-71
2021/10/12 05:01:36;;;;;;;5.63;2.77;;;8.70;99.90;;;;;;5102038;27;21046;-71
2021/10/12 05:04:05;;;;;;;3.63;2.67;;;8.70;99.90;;;;;;5089922;28;20239;-71
2021/10/12 05:06:31;;;;;;;5.27;2.77;;;8.70;99.90;;;;;;5120299;27;20257;-72
2021/10/12 05:08:58;;;;;;;3.03;2.77;;;8.70;99.90;;;;;;5110432;28;20670;-72
2021/10/12 05:11:25;;;;;;;6.60;2.80;;;8.70;99.90;;;;;;5110070;28;20282;-72
2021/10/12 05:13:52;;;;;;;4.13;2.70;;;8.70;99.90;;;;;;5115046;27;20195;-71
2021/10/12 05:16:21;;;;;;;4.53;2.53;;;8.70;99.90;;;;;;5118679;27;20226;-71
2021/10/12 05:18:48;;;;;;;2.83;2.63;;;8.70;99.90;;;;;;5130761;27;20207;-71
2021/10/12 05:21:16;;;;;;;4.87;3.17;;;8.60;99.90;;;;;;5116220;27;20229;-71
2021/10/12 05:23:42;;;;;;;4.40;1.97;;;8.60;99.90;;;;;;5130341;27;20213;-71
2021/10/12 05:26:11;;;;;;;3.63;2.40;;;8.50;99.90;;;;;;5130479;27;20553;-71
2021/10/12 05:28:38;;;;;;;4.40;2.93;;;8.50;99.90;;;;;;5130725;27;20236;-71
2021/10/12 05:31:04;;;;;;;4.47;2.30;;;8.50;99.90;;;;;;5130693;27;20285;-71
2021/10/12 05:33:31;;;;;;;3.37;3.07;;;8.50;99.90;;;;;;5129939;27;20282;-72
2021/10/12 05:36:00;;;;;;;4.10;2.50;;;8.60;99.90;;;;;;5130658;27;20225;-72
2021/10/12 05:38:28;;;;;;;4.00;2.27;;;8.60;99.90;;;;;;5130081;27;20229;-71
2021/10/12 05:40:55;;;;;;;5.37;2.47;;;8.60;99.90;;;;;;5129799;27;20858;-71
2021/10/12 05:43:21;;;;;;;4.90;2.53;;;8.60;99.90;;;;;;5129051;27;20277;-71
2021/10/12 05:45:49;;;;;;;3.67;2.10;;;8.50;99.90;;;;;;5124671;27;20246;-71
2021/10/12 05:48:16;;;;;;;3.30;2.20;;;8.60;99.90;;;;;;5107239;27;20201;-71
2021/10/12 05:50:45;;;;;;;3.03;2.10;;;8.60;99.90;;;;;;5101686;28;20210;-70
2021/10/12 05:53:22;;;;;;;3.87;2.67;;;8.70;99.90;;;;;;5102680;27;20633;-71
2021/10/12 05:55:54;;;;;;;2.97;2.37;;;8.70;99.90;;;;;;5100780;28;20207;-72
2021/10/12 05:58:30;;;;;;;4.40;2.93;;;8.70;99.90;;;;;;5101643;28;20199;-70
2021/10/12 06:00:57;;;;;;;8.37;2.77;;;8.70;99.90;;;;;;5106295;28;20688;-71
2021/10/12 06:03:24;;;;;;;2.90;2.70;;;8.80;99.90;;;;;;5100542;28;20210;-70
2021/10/12 06:05:51;;;;;;;3.17;2.73;;;8.90;99.90;;;;;;5098184;28;20540;-70
2021/10/12 06:08:18;;;;;;;2.53;2.30;;;8.80;99.90;;;;;;5098432;27;20247;-70
2021/10/12 06:10:45;;;;;;;5.53;2.70;;;8.90;99.90;;;;;;5099511;28;20248;-71
2021/10/12 06:13:12;;;;;;;4.87;2.63;;;8.80;99.90;;;;;;5097663;28;20222;-70
2021/10/12 06:15:42;;;;;;;5.77;3.13;;;8.80;99.90;;;;;;5098305;28;20218;-71
2021/10/12 06:18:09;;;;;;;3.97;2.93;;;8.90;99.90;;;;;;5099176;28;21003;-70
2021/10/12 06:20:36;;;;;;;3.63;2.83;;;8.90;99.90;;;;;;5098490;28;20205;-70
2021/10/12 06:23:03;;;;;;;4.83;2.83;;;8.90;99.90;;;;;;5100891;28;20685;-70
2021/10/12 06:25:31;;;;;;;3.77;2.53;;;8.90;99.90;;;;;;5099287;28;20201;-70
2021/10/12 06:27:57;;;;;;;3.27;2.93;;;8.90;99.90;;;;;;5098158;28;20264;-71
2021/10/12 06:30:25;;;;;;;3.73;3.10;;;9.00;99.90;;;;;;5097230;28;20234;-70
2021/10/12 06:32:52;;;;;;;2.97;2.60;;;9.00;99.90;;;;;;5097378;28;20245;-71
2021/10/12 06:35:18;;;;;;;2.97;2.80;;;9.10;99.90;;;;;;5096959;28;20284;-70
2021/10/12 06:37:45;;;;;;;4.27;2.67;;;9.10;99.90;;;;;;5096877;28;20214;-71
2021/10/12 06:40:13;;;;;;;4.50;2.77;;;9.10;99.90;;;;;;5096815;28;20250;-70
2021/10/12 06:42:40;;;;;;;5.50;3.30;;;9.00;99.90;;;;;;5097481;28;20205;-70
2021/10/12 06:45:07;;;;;;;5.27;3.30;;;9.10;99.90;;;;;;5098974;28;20252;-71
2021/10/12 06:47:35;;;;;;;3.97;3.03;;;9.10;99.90;;;;;;5098625;28;20229;-71
2021/10/12 06:50:01;;;;;;;3.53;2.90;;;9.10;99.90;;;;;;5097966;28;20230;-70
2021/10/12 06:52:28;;;;;;;3.43;3.13;;;9.10;99.90;;;;;;5096331;28;20241;-73
2021/10/12 06:54:55;;;;;;;3.33;3.00;;;9.10;99.90;;;;;;5098086;28;20198;-73
2021/10/12 06:57:21;;;;;;;10.67;3.40;;;9.10;99.90;;;;;;5099751;28;20238;-71
2021/10/12 06:59:48;;;;;;;4.10;2.87;;;9.20;99.90;;;;;;5103295;28;20715;-70
2021/10/12 07:02:14;;;;;;;4.13;3.47;;;9.30;99.90;;;;;;5108071;28;20295;-71
2021/10/12 07:04:42;;;;;;;3.07;2.23;;;9.30;99.90;;;;;;5107734;28;20210;-70
2021/10/12 07:07:09;;;;;;;5.13;4.00;;;9.30;99.90;;;;;;5108369;28;20198;-70
2021/10/12 07:09:35;;;;;;;5.77;3.20;;;9.30;99.90;;;;;;5108106;28;20586;-70
2021/10/12 07:12:02;;;;;;;3.47;2.20;;;9.30;99.90;;;;;;5107718;28;20198;-70
2021/10/12 07:14:29;;;;;;;2.30;1.97;;;9.20;99.90;;;;;;5107547;28;20627;-70
2021/10/12 07:16:56;;;;;;;3.47;1.97;;;9.30;99.90;;;;;;5108250;28;20307;-70
2021/10/12 07:19:26;;;;;;;2.50;2.13;;;9.30;99.90;;;;;;5107779;28;20240;-70
2021/10/12 07:21:54;;;;;;;2.13;1.87;;;9.30;99.90;;;;;;5101453;28;20666;-71
2021/10/12 07:24:21;;;;;;;2.93;1.77;;;9.30;99.90;;;;;;5098518;28;20230;-70
2021/10/12 07:26:47;;;;;;;1.93;1.77;;;9.20;99.90;;;;;;5095936;28;20199;-70
2021/10/12 07:29:14;;;;;;;1.80;1.70;;;9.20;99.90;;;;;;5087680;28;20347;-70
2021/10/12 07:31:40;;;;;;;2.07;1.70;;;9.20;99.90;;;;;;5087659;28;20568;-70
2021/10/12 07:34:07;;;;;;;1.70;1.60;;;9.30;99.90;;;;;;5087419;28;20283;-70
2021/10/12 07:36:34;;;;;;;2.00;1.60;;;9.30;99.90;;;;;;5087273;28;20261;-70
2021/10/12 07:39:03;;;;;;;3.00;2.00;;;9.40;99.90;;;;;;5087198;28;20211;-70
2021/10/12 07:41:30;;;;;;;4.53;1.50;;;9.40;99.90;;;;;;5086911;28;20227;-70
2021/10/12 07:43:57;;;;;;;2.63;2.17;;;9.50;99.90;;;;;;5086745;28;20672;-70
2021/10/12 07:46:23;;;;;;;1.73;1.60;;;9.50;99.90;;;;;;5087133;28;20203;-70
2021/10/12 07:48:51;;;;;;;2.27;1.63;;;9.50;99.90;;;;;;5087048;28;20264;-70
2021/10/12 07:51:17;;;;;;;3.43;1.50;;;9.50;99.90;;;;;;5086869;28;20237;-70
2021/10/12 07:53:44;;;;;;;1.77;1.30;;;9.50;99.90;;;;;;5086832;28;20230;-70
2021/10/12 07:56:17;;;;;;;4.03;1.50;;;9.50;99.90;;;;;;5087284;28;20206;-70
2021/10/12 07:58:44;;;;;;;2.57;1.57;;;9.50;99.90;;;;;;5086659;28;20785;-70
2021/10/12 08:01:11;;;;;;;2.43;1.53;;;9.50;99.90;;;;;;5086424;28;20249;-72
2021/10/12 08:03:41;;;;;;;1.43;1.33;;;9.50;99.90;;;;;;5085881;28;20684;-72
2021/10/12 08:06:08;;;;;;;2.27;1.40;;;9.60;99.90;;;;;;5087016;28;20217;-72
2021/10/12 08:08:35;;;;;;;1.60;1.40;;;9.60;99.90;;;;;;5086936;28;20783;-71
2021/10/12 08:11:04;;;;;;;1.30;1.20;;;9.60;99.90;;;;;;5098495;28;20283;-70
2021/10/12 08:13:34;;;;;;;2.33;1.30;;;9.70;99.90;;;;;;5095250;28;20918;-70
2021/10/12 08:16:07;;;;;;;1.30;1.20;;;9.70;99.90;;;;;;5097002;28;20216;-71
2021/10/12 08:18:33;;;;;;;1.23;1.10;;;9.70;99.90;;;;;;5097543;28;20243;-71
2021/10/12 08:21:00;;;;;;;1.17;1.03;;;9.70;99.90;;;;;;5096770;28;20619;-70
2021/10/12 08:23:27;;;;;;;0.97;0.90;;;9.80;99.90;;;;;;5095905;28;20213;-70
2021/10/12 08:25:53;;;;;;;4.63;1.40;;;9.80;99.90;;;;;;5097882;28;20202;-70
2021/10/12 08:28:20;;;;;;;1.30;1.20;;;9.90;99.90;;;;;;5096158;28;20244;-70
2021/10/12 08:30:49;;;;;;;1.87;1.20;;;9.90;99.90;;;;;;5096001;28;20203;-70
2021/10/12 08:33:16;;;;;;;2.20;1.00;;;9.90;99.90;;;;;;5097433;28;20223;-70
2021/10/12 08:35:42;;;;;;;3.00;1.20;;;10.00;99.90;;;;;;5100663;28;20234;-71
2021/10/12 08:38:10;;;;;;;3.13;2.53;;;10.00;99.90;;;;;;5101154;28;20280;-70
2021/10/12 08:40:37;;;;;;;2.17;1.60;;;10.00;99.90;;;;;;5101330;28;20224;-71
2021/10/12 08:43:04;;;;;;;2.87;1.50;;;10.00;99.90;;;;;;5100684;28;20255;-71
2021/10/12 08:45:32;;;;;;;2.53;1.50;;;10.00;99.90;;;;;;5099233;28;20203;-71
2021/10/12 08:48:01;;;;;;;1.50;1.20;;;10.00;99.90;;;;;;5101112;28;20190;-71
2021/10/12 08:50:27;;;;;;;1.47;1.20;;;10.00;99.90;;;;;;5098007;28;20660;-71
2021/10/12 08:52:54;;;;;;;2.10;1.27;;;10.00;99.90;;;;;;5104737;28;20258;-70
2021/10/12 08:55:21;;;;;;;1.70;1.60;;;10.10;99.90;;;;;;5110346;28;20651;-70
2021/10/12 08:57:47;;;;;;;1.63;1.40;;;10.10;99.90;;;;;;5110493;28;20202;-70
2021/10/12 09:00:16;;;;;;;1.23;1.03;;;10.10;99.90;;;;;;5106817;28;20270;-70
2021/10/12 09:02:56;;;;;;;2.00;1.07;;;10.10;99.90;;;;;;5099843;28;20195;-70
2021/10/12 09:05:25;;;;;;;2.37;1.23;;;10.20;99.90;;;;;;5094673;28;20196;-70
2021/10/12 09:07:53;;;;;;;2.50;1.27;;;10.40;99.90;;;;;;5098469;28;20615;-70
2021/10/12 09:10:21;;;;;;;1.70;1.00;;;10.50;99.90;;;;;;5098885;28;20243;-70
2021/10/12 09:12:49;;;;;;;1.20;0.90;;;10.60;99.90;;;;;;5104495;28;20213;-70
2021/10/12 09:15:16;;;;;;;2.20;1.37;;;10.60;99.90;;;;;;5110221;28;20305;-70
2021/10/12 09:17:46;;;;;;;1.93;1.23;;;10.60;99.90;;;;;;5110207;28;20198;-70
2021/10/12 09:20:38;;;;;;;1.33;1.17;;;10.60;99.90;;;;;;5109639;28;20732;-70
2021/10/12 09:23:10;;;;;;;2.37;1.40;;;10.70;99.90;;;;;;5097753;27;20251;-71
2021/10/12 09:25:39;;;;;;;1.70;1.20;;;10.70;99.90;;;;;;5099076;27;20252;-71
2021/10/12 09:28:07;;;;;;;5.83;1.07;;;10.70;99.90;;;;;;5100416;28;20230;-70
2021/10/12 09:30:36;;;;;;;4.33;1.00;;;10.80;99.90;;;;;;5097942;28;20306;-70
2021/10/12 09:33:05;;;;;;;3.13;1.10;;;10.80;99.90;;;;;;5100628;28;20210;-71
2021/10/12 09:35:32;;;;;;;3.10;1.23;;;10.80;99.90;;;;;;5098893;28;20195;-71
2021/10/12 09:38:08;;;;;;;1.63;1.13;;;10.70;99.90;;;;;;5098816;28;20303;-71
2021/10/12 09:40:36;;;;;;;3.93;1.07;;;10.60;99.90;;;;;;5098931;28;20734;-71
2021/10/12 09:43:03;;;;;;;2.27;1.00;;;10.50;99.90;;;;;;5098395;28;20236;-71
2021/10/12 09:45:40;;;;;;;2.27;1.10;;;10.40;99.90;;;;;;5099163;28;20210;-70
2021/10/12 09:48:27;;;;;;;4.33;1.10;;;10.40;99.90;;;;;;5100600;28;20243;-71
2021/10/12 09:51:07;;;;;;;3.07;1.00;;;10.70;99.90;;;;;;5099312;28;20262;-71
2021/10/12 09:53:35;;;;;;;2.67;2.00;;;10.90;99.90;;;;;;5101554;28;20263;-70
2021/10/12 09:56:02;;;;;;;4.70;1.47;;;11.20;99.90;;;;;;5098092;28;20275;-70
2021/10/12 09:58:31;;;;;;;3.33;1.50;;;11.40;99.90;;;;;;5097522;28;20223;-70
2021/10/12 10:01:00;;;;;;;3.40;0.90;;;11.60;99.90;;;;;;5096705;28;20222;-70
2021/10/12 10:03:28;;;;;;;3.50;1.10;;;11.70;99.90;;;;;;5099746;28;20198;-71
2021/10/12 10:05:56;;;;;;;2.23;1.07;;;12.00;99.90;;;;;;5100874;28;20720;-70
2021/10/12 10:08:23;;;;;;;6.13;1.90;;;12.20;99.90;;;;;;5099949;28;20198;-70
2021/10/12 10:10:51;;;;;;;2.07;0.80;;;12.30;99.90;;;;;;5099552;28;20259;-70
2021/10/12 10:13:19;;;;;;;1.53;0.90;;;12.40;99.90;;;;;;5096481;28;20712;-70
2021/10/12 10:15:46;;;;;;;3.13;0.97;;;12.40;99.90;;;;;;5099961;28;20217;-71
2021/10/12 10:18:14;;;;;;;2.30;1.10;;;12.40;99.90;;;;;;5099583;28;20211;-71
2021/10/12 10:20:41;;;;;;;1.00;0.80;;;12.20;99.90;;;;;;5097168;28;20276;-71
2021/10/12 10:23:08;;;;;;;0.87;0.70;;;12.20;99.90;;;;;;5099382;28;20206;-70
2021/10/12 10:25:38;;;;;;;2.33;1.03;;;12.10;99.90;;;;;;5095203;28;20206;-70
2021/10/12 10:28:26;;;;;;;2.47;0.87;;;11.90;99.90;;;;;;5093901;28;20194;-70
2021/10/12 10:30:54;;;;;;;2.93;0.90;;;12.10;99.90;;;;;;5096412;28;20198;-71
2021/10/12 10:33:28;;;;;;;2.63;0.60;;;12.20;99.90;;;;;;5101489;28;20562;-71
2021/10/12 10:35:57;;;;;;;1.57;0.77;;;12.50;99.90;;;;;;5102820;27;20249;-72
2021/10/12 10:38:29;;;;;;;3.17;1.10;;;12.60;99.90;;;;;;5097206;28;20569;-72
2021/10/12 10:41:25;;;;;;;4.77;1.20;;;13.00;99.90;;;;;;5098518;28;20251;-71
2021/10/12 10:43:55;;;;;;;3.83;1.00;;;13.30;99.90;;;;;;5100280;28;20209;-71
2021/10/12 10:46:38;;;;;;;3.23;0.93;;;13.50;99.90;;;;;;5096640;28;20861;-71
2021/10/12 10:49:06;;;;;;;2.30;0.70;;;13.60;99.90;;;;;;5101736;28;20202;-71
2021/10/12 10:51:47;;;;;;;5.83;0.70;;;13.80;99.90;;;;;;5099142;28;20244;-71
2021/10/12 10:55:04;;;;;;;1.40;0.50;;;14.00;99.90;;;;;;5103338;28;20303;-71
2021/10/12 10:57:31;;;;;;;2.20;0.60;;;13.90;99.90;;;;;;5095658;28;20209;-71
2021/10/12 11:00:40;;;;;;;3.40;0.90;;;13.70;99.90;;;;;;5096323;28;20687;-71
2021/10/12 11:03:07;;;;;;;0.83;0.63;;;13.50;99.90;;;;;;5099032;28;20604;-71
2021/10/12 11:05:45;;;;;;;1.03;0.90;;;13.30;99.90;;;;;;5097670;28;20626;-71
2021/10/12 11:08:17;;;;;;;1.27;0.63;;;13.30;99.90;;;;;;5095063;28;20193;-72
2021/10/12 11:10:46;;;;;;;0.77;0.60;;;13.20;99.90;;;;;;5098274;28;20227;-71
2021/10/12 11:13:13;;;;;;;1.07;0.60;;;13.50;99.90;;;;;;5095426;28;20326;-71
2021/10/12 11:15:51;;;;;;;2.00;0.93;;;13.80;99.90;;;;;;5100025;28;20758;-71
2021/10/12 11:18:18;;;;;;;1.13;0.53;;;14.00;99.90;;;;;;5105416;27;20266;-71
2021/10/12 11:20:47;;;;;;;1.00;0.60;;;14.10;99.90;;;;;;5105471;27;20713;-71
2021/10/12 11:23:14;;;;;;;1.47;0.50;;;14.20;99.90;;;;;;5100560;27;20248;-71
2021/10/12 11:25:42;;;;;;;3.50;0.50;;;14.30;99.90;;;;;;5098009;28;20287;-71
2021/10/12 11:28:11;;;;;;;1.33;0.50;;;14.40;99.90;;;;;;5095691;28;20210;-71
2021/10/12 11:30:39;;;;;;;1.27;0.60;;;14.30;99.90;;;;;;5097621;28;20203;-71
2021/10/12 11:33:07;;;;;;;0.30;0.30;;;14.30;99.90;;;;;;5098808;28;20695;-71
2021/10/12 11:35:36;;;;;;;1.13;0.43;;;14.60;99.90;;;;;;5093917;28;20273;-71
2021/10/12 11:38:05;;;;;;;3.23;0.70;;;14.80;99.90;;;;;;5092945;28;20211;-71
2021/10/12 11:40:32;;;;;;;1.10;0.67;;;15.00;99.90;;;;;;5093148;28;20203;-71
2021/10/12 11:43:02;;;;;;;1.77;0.60;;;14.70;99.90;;;;;;5094113;28;20195;-71
2021/10/12 11:45:30;;;;;;;1.03;0.77;;;14.60;99.90;;;;;;5092848;28;20215;-71
2021/10/12 11:47:57;;;;;;;2.13;0.90;;;14.90;99.90;;;;;;5097680;28;20596;-71
2021/10/12 11:50:26;;;;;;;1.57;0.73;;;15.10;99.90;;;;;;5104217;28;20333;-71
2021/10/12 11:52:54;;;;;;;0.70;0.63;;;15.20;99.90;;;;;;5091216;28;20203;-71
2021/10/12 11:55:26;;;;;;;0.90;0.77;;;14.90;99.90;;;;;;5095595;28;20230;-71
2021/10/12 11:57:53;;;;;;;2.93;0.70;;;14.80;99.90;;;;;;5087226;28;20227;-71
2021/10/12 12:00:38;;;;;;;2.83;0.60;;;14.70;99.90;;;;;;5102816;28;20282;-71
2021/10/12 12:03:18;;;;;;;3.47;0.60;;;14.50;99.90;;;;;;5095060;28;20187;-71
2021/10/12 12:05:54;;;;;;;2.80;0.70;;;14.20;99.90;;;;;;5098189;28;20194;-71
2021/10/12 12:08:21;;;;;;;3.37;0.80;;;14.30;99.90;;;;;;5097658;27;20407;-71
2021/10/12 12:10:49;;;;;;;2.13;0.67;;;14.40;99.90;;;;;;5115691;27;20206;-71
2021/10/12 12:13:16;;;;;;;0.63;0.60;;;14.70;99.90;;;;;;5103377;28;20202;-71
2021/10/12 12:15:43;;;;;;;1.90;0.70;;;15.00;99.90;;;;;;5102802;28;20699;-71
2021/10/12 12:18:14;;;;;;;1.50;0.80;;;15.20;99.90;;;;;;5096226;28;20684;-71
2021/10/12 12:20:55;;;;;;;1.70;0.77;;;15.50;99.90;;;;;;5090892;28;20720;-70
2021/10/12 12:23:36;;;;;;;1.37;0.90;;;15.60;99.90;;;;;;5091002;28;20195;-71
2021/10/12 12:26:04;;;;;;;1.80;0.80;;;15.80;99.90;;;;;;5090397;28;20199;-71
2021/10/12 12:28:31;;;;;;;1.03;0.60;;;16.00;99.90;;;;;;5090817;28;20321;-71
2021/10/12 12:30:58;;;;;;;2.90;0.70;;;16.10;99.90;;;;;;5090735;28;20264;-71
2021/10/12 12:33:24;;;;;;;1.27;0.83;;;16.30;99.90;;;;;;5118424;27;20205;-72
2021/10/12 12:35:54;;;;;;;0.70;0.60;;;16.50;99.90;;;;;;5112012;27;20593;-72
2021/10/12 12:38:26;;;;;;;2.57;0.73;;;16.60;99.90;;;;;;5110950;28;20737;-72
2021/10/12 12:40:53;;;;;;;1.33;0.80;;;16.80;99.90;;;;;;5115822;27;20682;-71
2021/10/12 12:43:21;;;;;;;1.90;0.70;;;16.40;98.90;;;;;;5120742;27;20663;-71
2021/10/12 12:46:09;;;;;;;3.53;1.00;;;16.20;99.40;;;;;;5130731;27;20645;-71
2021/10/12 12:48:36;;;;;;;1.13;0.90;;;16.20;99.90;;;;;;5131303;27;20193;-71
2021/10/12 12:51:08;;;;;;;1.30;0.70;;;16.20;99.80;;;;;;5131033;27;20683;-71
2021/10/12 12:53:42;;;;;;;0.80;0.60;;;16.10;99.90;;;;;;5131338;27;20273;-71
2021/10/12 12:56:10;;;;;;;1.23;0.97;;;16.30;99.90;;;;;;5130781;27;20633;-71
2021/10/12 12:58:38;;;;;;;0.60;0.43;;;16.50;99.20;;;;;;5131324;27;20278;-71